Pontiac, South Carolina
Current Conditions -  °F | °C
As of 10:35 AM on Wednesday 22 Oct 2014 (Local Time) from KCDN Reporting Station
Clear Clear  
Wind Chill: 55°   Ceiling: Unl
Heat Index: 55°   Visibility: 10mi
Dew Point: 41°   Wind: 6mph
Humidity: 58%   Direction: 340°NNW
Pressure: 30.08"   Gusts: NA
Location:  34.1767°N, 80.8184°W
Report Text: KCDN 221435Z AUTO 34005KT 10SM CLR 13/05 A3008 RMK AO2 TSNO
Loading
Personal Weather Stations






























Interactive Weather Map New forecast layout! Learn more

10-Day Weather Forecast

Advertisements
Track Severe Weather on mobile